createdAt,value
2022-11-13T00:00:00.247Z,78
2022-11-13T00:05:00.259Z,78
2022-11-13T00:10:00.235Z,78
2022-11-13T00:15:00.161Z,78
2022-11-13T00:20:00.178Z,78
2022-11-13T00:25:00.248Z,78
2022-11-13T00:30:00.191Z,78
2022-11-13T00:35:00.307Z,78
2022-11-13T00:40:00.230Z,78
2022-11-13T00:45:00.262Z,78
2022-11-13T00:50:00.222Z,78
2022-11-13T00:55:00.157Z,78
2022-11-13T01:00:00.213Z,78
2022-11-13T01:05:00.199Z,78
2022-11-13T01:10:00.247Z,78
2022-11-13T01:15:00.260Z,78
2022-11-13T01:20:00.207Z,78
2022-11-13T01:25:00.179Z,78
2022-11-13T01:30:00.279Z,78
2022-11-13T01:35:00.292Z,78
2022-11-13T01:40:00.254Z,79
2022-11-13T01:45:00.161Z,79
2022-11-13T01:50:00.163Z,79
2022-11-13T01:55:00.193Z,79
2022-11-13T02:00:00.261Z,79
2022-11-13T02:05:00.249Z,79
2022-11-13T02:10:00.239Z,79
2022-11-13T02:15:00.235Z,79
2022-11-13T02:20:00.413Z,79
2022-11-13T02:25:00.189Z,79
2022-11-13T02:30:00.265Z,79
2022-11-13T02:35:00.199Z,79
2022-11-13T02:40:00.240Z,79
2022-11-13T02:45:00.204Z,79
2022-11-13T02:50:00.248Z,79
2022-11-13T02:55:00.259Z,79
2022-11-13T03:00:00.294Z,79
2022-11-13T03:05:13.239Z,79
2022-11-13T03:10:00.179Z,79
2022-11-13T03:15:00.280Z,79
2022-11-13T03:20:03.898Z,79
2022-11-13T03:25:00.326Z,79
2022-11-13T03:30:00.188Z,79
2022-11-13T03:35:00.192Z,79
2022-11-13T03:40:00.241Z,79
2022-11-13T03:45:00.163Z,79
2022-11-13T03:50:00.209Z,79
2022-11-13T03:55:00.142Z,79
2022-11-13T04:00:00.203Z,79
2022-11-13T04:05:00.243Z,79
2022-11-13T04:10:00.349Z,79
2022-11-13T04:15:00.175Z,79
2022-11-13T04:20:00.170Z,79
2022-11-13T04:25:00.197Z,79
2022-11-13T04:30:00.222Z,79
2022-11-13T04:35:00.231Z,79
2022-11-13T04:40:00.211Z,79
2022-11-13T04:45:00.176Z,79
2022-11-13T04:50:00.235Z,79
2022-11-13T04:55:00.274Z,79
2022-11-13T05:00:00.256Z,79
2022-11-13T05:05:04.687Z,79
2022-11-13T05:10:00.238Z,79
2022-11-13T05:15:00.267Z,79
2022-11-13T05:20:00.198Z,79
2022-11-13T05:25:00.195Z,80
2022-11-13T05:30:00.251Z,80
2022-11-13T05:35:00.187Z,80
2022-11-13T05:40:00.259Z,80
2022-11-13T05:45:00.268Z,80
2022-11-13T05:50:00.234Z,80
2022-11-13T05:55:00.191Z,80
2022-11-13T06:00:00.287Z,80
2022-11-13T06:05:00.203Z,80
2022-11-13T06:10:00.162Z,80
2022-11-13T06:15:00.156Z,79
2022-11-13T06:20:00.239Z,80
2022-11-13T06:25:00.260Z,80
2022-11-13T06:30:00.252Z,80
2022-11-13T06:35:00.227Z,80
2022-11-13T06:40:00.216Z,80
2022-11-13T06:45:00.208Z,80
2022-11-13T06:50:00.218Z,80
2022-11-13T06:55:00.259Z,80
2022-11-13T07:00:00.256Z,80
2022-11-13T07:05:00.243Z,80
2022-11-13T07:10:00.249Z,80
2022-11-13T07:15:00.254Z,80
2022-11-13T07:20:00.238Z,80
2022-11-13T07:25:00.249Z,80
2022-11-13T07:30:03.505Z,80
2022-11-13T07:35:00.244Z,80
2022-11-13T07:40:00.242Z,80
2022-11-13T07:45:00.255Z,80
2022-11-13T07:50:06.720Z,81
2022-11-13T07:55:00.250Z,81
2022-11-13T08:00:00.242Z,81
2022-11-13T08:05:00.232Z,81
2022-11-13T08:10:00.188Z,81
2022-11-13T08:15:00.196Z,81
2022-11-13T08:20:00.235Z,81
2022-11-13T08:25:00.221Z,81
2022-11-13T08:30:00.218Z,81
2022-11-13T08:35:00.244Z,81
2022-11-13T08:40:00.248Z,81
2022-11-13T08:45:00.252Z,81
2022-11-13T08:50:00.238Z,81
2022-11-13T08:55:00.218Z,81
2022-11-13T09:00:00.282Z,81
2022-11-13T09:05:00.355Z,81
2022-11-13T09:10:00.252Z,81
2022-11-13T09:15:00.241Z,82
2022-11-13T09:20:04.049Z,82
2022-11-13T09:25:00.222Z,82
2022-11-13T09:30:00.176Z,82
2022-11-13T09:35:00.211Z,82
2022-11-13T09:40:00.243Z,82
2022-11-13T09:45:00.258Z,82
2022-11-13T09:50:00.182Z,81
2022-11-13T09:55:00.254Z,81
2022-11-13T10:00:00.270Z,81
2022-11-13T10:05:00.256Z,81
2022-11-13T10:10:00.172Z,81
2022-11-13T10:15:00.191Z,80
2022-11-13T10:20:00.262Z,80
2022-11-13T10:25:00.264Z,80
2022-11-13T10:30:00.193Z,80
2022-11-13T10:35:00.233Z,79
2022-11-13T10:40:00.254Z,79
2022-11-13T10:45:00.260Z,78
2022-11-13T10:50:00.239Z,78
2022-11-13T10:55:00.230Z,77
2022-11-13T11:00:00.431Z,77
2022-11-13T11:05:00.185Z,76
2022-11-13T11:10:00.217Z,76
2022-11-13T11:15:00.231Z,76
2022-11-13T11:20:00.255Z,75
2022-11-13T11:25:00.254Z,75
2022-11-13T11:30:00.187Z,74
2022-11-13T11:35:00.173Z,73
2022-11-13T11:40:00.291Z,72
2022-11-13T11:45:00.165Z,73
2022-11-13T11:50:00.170Z,72
2022-11-13T11:55:00.227Z,71
2022-11-13T12:00:00.296Z,71
2022-11-13T12:05:00.322Z,70
2022-11-13T12:10:00.210Z,70
2022-11-13T12:15:00.259Z,70
2022-11-13T12:20:00.182Z,70
2022-11-13T12:25:00.215Z,69
2022-11-13T12:30:00.258Z,68
2022-11-13T12:35:00.158Z,68
2022-11-13T12:40:00.182Z,67
2022-11-13T12:45:00.164Z,66
2022-11-13T12:50:00.278Z,65
2022-11-13T12:55:00.247Z,65
2022-11-13T13:00:00.208Z,65
2022-11-13T13:05:00.182Z,64
2022-11-13T13:10:00.209Z,64
2022-11-13T13:15:00.197Z,64
2022-11-13T13:20:00.232Z,64
2022-11-13T13:25:00.228Z,64
2022-11-13T13:30:00.451Z,65
2022-11-13T13:35:00.267Z,64
2022-11-13T13:40:00.217Z,64
2022-11-13T13:45:00.163Z,64
2022-11-13T13:50:00.168Z,64
2022-11-13T13:55:00.258Z,64
2022-11-13T14:00:00.235Z,64
2022-11-13T14:05:00.158Z,65
2022-11-13T14:10:00.163Z,65
2022-11-13T14:15:00.209Z,65
2022-11-13T14:20:00.171Z,66
2022-11-13T14:25:00.369Z,65
2022-11-13T14:30:00.190Z,65
2022-11-13T14:35:00.258Z,65
2022-11-13T14:40:00.174Z,65
2022-11-13T14:45:00.171Z,65
2022-11-13T14:50:00.249Z,65
2022-11-13T14:55:14.719Z,65
2022-11-13T15:00:00.181Z,65
2022-11-13T15:05:00.241Z,65
2022-11-13T15:10:00.231Z,66
2022-11-13T15:15:00.244Z,66
2022-11-13T15:20:03.004Z,66
2022-11-13T15:25:00.213Z,66
2022-11-13T15:30:00.228Z,66
2022-11-13T15:35:00.245Z,66
2022-11-13T15:40:00.251Z,66
2022-11-13T15:45:00.168Z,66
2022-11-13T15:50:13.366Z,67
2022-11-13T15:55:00.157Z,67
2022-11-13T16:00:00.345Z,67
2022-11-13T16:05:00.254Z,67
2022-11-13T16:10:00.314Z,67
2022-11-13T16:15:00.250Z,67
2022-11-13T16:20:00.333Z,68
2022-11-13T16:25:00.259Z,68
2022-11-13T16:30:05.472Z,68
2022-11-13T16:35:00.256Z,68
2022-11-13T16:40:00.198Z,68
2022-11-13T16:45:00.175Z,68
2022-11-13T16:50:00.211Z,68
2022-11-13T16:55:06.129Z,68
2022-11-13T17:00:00.283Z,68
2022-11-13T17:05:00.559Z,68
2022-11-13T17:10:24.596Z,68
2022-11-13T17:15:00.225Z,68
2022-11-13T17:20:00.283Z,68
2022-11-13T17:25:00.254Z,69
2022-11-13T17:30:00.228Z,69
2022-11-13T17:35:00.176Z,69
2022-11-13T17:40:00.267Z,69
2022-11-13T17:45:05.260Z,69
2022-11-13T17:50:06.802Z,69
2022-11-13T17:55:00.249Z,69
2022-11-13T18:00:00.240Z,70
2022-11-13T18:05:00.243Z,70
2022-11-13T18:10:00.314Z,70
2022-11-13T18:15:00.235Z,70
2022-11-13T18:20:01.690Z,70
2022-11-13T18:25:00.257Z,70
2022-11-13T18:30:00.269Z,70
2022-11-13T18:35:00.164Z,70
2022-11-13T18:40:00.299Z,70
2022-11-13T18:45:05.486Z,70
2022-11-13T18:50:00.172Z,70
2022-11-13T18:55:00.294Z,70
2022-11-13T19:00:00.205Z,70
2022-11-13T19:05:00.240Z,70
2022-11-13T19:10:00.287Z,70
2022-11-13T19:15:00.331Z,70
2022-11-13T19:20:00.270Z,69
2022-11-13T19:25:00.308Z,69
2022-11-13T19:30:00.274Z,69
2022-11-13T19:35:00.220Z,69
2022-11-13T19:40:00.252Z,69
2022-11-13T19:45:00.259Z,68
2022-11-13T19:50:00.188Z,68
2022-11-13T19:55:00.382Z,68
2022-11-13T20:00:00.203Z,68
2022-11-13T20:05:00.227Z,69
2022-11-13T20:10:00.212Z,68
2022-11-13T20:15:00.472Z,68
2022-11-13T20:20:00.240Z,68
2022-11-13T20:25:00.237Z,69
2022-11-13T20:30:00.289Z,69
2022-11-13T20:35:00.345Z,69
2022-11-13T20:40:00.253Z,69
2022-11-13T20:45:01.515Z,69
2022-11-13T20:50:00.293Z,69
2022-11-13T20:55:00.250Z,69
2022-11-13T21:00:00.292Z,69
2022-11-13T21:05:00.254Z,70
2022-11-13T21:10:00.261Z,70
2022-11-13T21:15:00.213Z,70
2022-11-13T21:20:00.279Z,70
2022-11-13T21:25:00.287Z,70
2022-11-13T21:30:00.288Z,70
2022-11-13T21:35:00.263Z,71
2022-11-13T21:40:00.258Z,71
2022-11-13T21:45:00.286Z,71
2022-11-13T21:50:00.248Z,71
2022-11-13T21:55:00.241Z,71
2022-11-13T22:00:00.320Z,71
2022-11-13T22:05:00.301Z,71
2022-11-13T22:10:05.461Z,71
2022-11-13T22:15:00.202Z,72
2022-11-13T22:20:00.392Z,71
2022-11-13T22:25:00.216Z,72
2022-11-13T22:30:00.287Z,71
2022-11-13T22:35:00.219Z,72
2022-11-13T22:40:00.293Z,72
2022-11-13T22:45:00.273Z,72
2022-11-13T22:50:00.165Z,72
2022-11-13T22:55:00.186Z,72
2022-11-13T23:00:00.270Z,72
2022-11-13T23:05:00.217Z,72
2022-11-13T23:10:00.296Z,72
2022-11-13T23:15:00.278Z,72
2022-11-13T23:20:00.245Z,72
2022-11-13T23:25:00.227Z,72
2022-11-13T23:30:00.247Z,72
2022-11-13T23:35:00.511Z,73
2022-11-13T23:40:00.211Z,73
2022-11-13T23:45:00.250Z,73
2022-11-13T23:50:00.225Z,73
2022-11-13T23:55:00.239Z,73
